sensor_id;sensor_type;location;lat;lon;timestamp;temperature;humidity
53653;DHT22;39553;52.954;5.932;2023-05-07T00:00:21;13.30;99.90
53653;DHT22;39553;52.954;5.932;2023-05-07T00:02:47;13.30;99.90
53653;DHT22;39553;52.954;5.932;2023-05-07T00:05:13;13.30;99.90
53653;DHT22;39553;52.954;5.932;2023-05-07T00:07:40;13.30;99.90
53653;DHT22;39553;52.954;5.932;2023-05-07T00:10:06;13.30;99.90
53653;DHT22;39553;52.954;5.932;2023-05-07T00:12:33;13.20;99.90
53653;DHT22;39553;52.954;5.932;2023-05-07T00:15:03;13.30;99.90
53653;DHT22;39553;52.954;5.932;2023-05-07T00:17:29;13.20;99.90
53653;DHT22;39553;52.954;5.932;2023-05-07T00:19:55;13.20;99.90
53653;DHT22;39553;52.954;5.932;2023-05-07T00:22:21;13.20;99.90
53653;DHT22;39553;52.954;5.932;2023-05-07T00:24:47;13.20;99.90
53653;DHT22;39553;52.954;5.932;2023-05-07T00:27:13;13.20;99.90
53653;DHT22;39553;52.954;5.932;2023-05-07T00:29:39;13.20;99.90
53653;DHT22;39553;52.954;5.932;2023-05-07T00:32:05;13.30;99.90
53653;DHT22;39553;52.954;5.932;2023-05-07T00:34:31;13.30;99.90
53653;DHT22;39553;52.954;5.932;2023-05-07T00:36:56;13.30;99.90
53653;DHT22;39553;52.954;5.932;2023-05-07T00:39:22;13.20;99.90
53653;DHT22;39553;52.954;5.932;2023-05-07T00:41:48;13.30;99.90
53653;DHT22;39553;52.954;5.932;2023-05-07T00:44:14;13.30;99.90
53653;DHT22;39553;52.954;5.932;2023-05-07T00:46:40;13.40;99.90
53653;DHT22;39553;52.954;5.932;2023-05-07T00:49:06;13.30;99.90
53653;DHT22;39553;52.954;5.932;2023-05-07T00:51:33;13.30;99.90
53653;DHT22;39553;52.954;5.932;2023-05-07T00:54:00;13.30;99.90
53653;DHT22;39553;52.954;5.932;2023-05-07T00:56:27;13.20;99.90
53653;DHT22;39553;52.954;5.932;2023-05-07T00:58:53;13.20;99.90
53653;DHT22;39553;52.954;5.932;2023-05-07T01:01:20;13.20;99.90
53653;DHT22;39553;52.954;5.932;2023-05-07T01:03:45;13.30;99.90
53653;DHT22;39553;52.954;5.932;2023-05-07T01:06:12;13.30;99.90
53653;DHT22;39553;52.954;5.932;2023-05-07T01:08:42;13.20;99.90
53653;DHT22;39553;52.954;5.932;2023-05-07T01:11:08;13.20;99.90
53653;DHT22;39553;52.954;5.932;2023-05-07T01:13:35;13.10;99.90
53653;DHT22;39553;52.954;5.932;2023-05-07T01:16:02;13.20;99.90
53653;DHT22;39553;52.954;5.932;2023-05-07T01:18:31;13.20;99.90
53653;DHT22;39553;52.954;5.932;2023-05-07T01:20:58;13.20;99.90
53653;DHT22;39553;52.954;5.932;2023-05-07T01:23:25;12.70;99.90
53653;DHT22;39553;52.954;5.932;2023-05-07T01:25:55;13.10;99.90
53653;DHT22;39553;52.954;5.932;2023-05-07T01:28:20;13.10;99.90
53653;DHT22;39553;52.954;5.932;2023-05-07T01:30:53;13.10;99.90
53653;DHT22;39553;52.954;5.932;2023-05-07T01:33:21;13.10;99.90
53653;DHT22;39553;52.954;5.932;2023-05-07T01:35:50;13.10;99.90
53653;DHT22;39553;52.954;5.932;2023-05-07T01:38:17;13.10;99.90
53653;DHT22;39553;52.954;5.932;2023-05-07T01:40:43;13.00;99.90
53653;DHT22;39553;52.954;5.932;2023-05-07T01:43:09;13.00;99.90
53653;DHT22;39553;52.954;5.932;2023-05-07T01:45:36;13.00;99.90
53653;DHT22;39553;52.954;5.932;2023-05-07T01:48:02;13.00;99.90
53653;DHT22;39553;52.954;5.932;2023-05-07T01:50:29;13.00;99.90
53653;DHT22;39553;52.954;5.932;2023-05-07T01:52:56;13.00;99.90
53653;DHT22;39553;52.954;5.932;2023-05-07T01:55:22;13.00;99.90
53653;DHT22;39553;52.954;5.932;2023-05-07T01:57:48;12.90;99.90
53653;DHT22;39553;52.954;5.932;2023-05-07T02:00:15;12.90;99.90
53653;DHT22;39553;52.954;5.932;2023-05-07T02:02:41;12.90;99.90
53653;DHT22;39553;52.954;5.932;2023-05-07T02:05:07;12.90;99.90
53653;DHT22;39553;52.954;5.932;2023-05-07T02:07:33;12.90;99.90
53653;DHT22;39553;52.954;5.932;2023-05-07T02:09:59;12.90;99.90
53653;DHT22;39553;52.954;5.932;2023-05-07T02:12:25;12.80;99.90
53653;DHT22;39553;52.954;5.932;2023-05-07T02:14:51;12.80;99.90
53653;DHT22;39553;52.954;5.932;2023-05-07T02:17:16;12.40;99.90
53653;DHT22;39553;52.954;5.932;2023-05-07T02:19:42;12.80;99.90
53653;DHT22;39553;52.954;5.932;2023-05-07T02:22:09;12.80;99.90
53653;DHT22;39553;52.954;5.932;2023-05-07T02:24:35;12.80;99.90
53653;DHT22;39553;52.954;5.932;2023-05-07T02:27:01;12.80;99.90
53653;DHT22;39553;52.954;5.932;2023-05-07T02:29:28;12.80;99.90
53653;DHT22;39553;52.954;5.932;2023-05-07T02:31:54;12.70;99.90
53653;DHT22;39553;52.954;5.932;2023-05-07T02:34:21;12.70;99.90
53653;DHT22;39553;52.954;5.932;2023-05-07T02:36:47;12.70;99.90
53653;DHT22;39553;52.954;5.932;2023-05-07T02:39:13;12.70;99.90
53653;DHT22;39553;52.954;5.932;2023-05-07T02:41:39;12.60;99.90
53653;DHT22;39553;52.954;5.932;2023-05-07T02:44:05;12.60;99.90
53653;DHT22;39553;52.954;5.932;2023-05-07T02:46:31;12.60;99.90
53653;DHT22;39553;52.954;5.932;2023-05-07T02:48:57;12.50;99.90
53653;DHT22;39553;52.954;5.932;2023-05-07T02:51:23;12.50;99.90
53653;DHT22;39553;52.954;5.932;2023-05-07T02:53:49;12.50;99.90
53653;DHT22;39553;52.954;5.932;2023-05-07T02:56:15;12.50;99.90
53653;DHT22;39553;52.954;5.932;2023-05-07T02:58:41;12.70;99.90
53653;DHT22;39553;52.954;5.932;2023-05-07T03:01:10;12.50;99.90
53653;DHT22;39553;52.954;5.932;2023-05-07T03:03:36;12.30;99.90
53653;DHT22;39553;52.954;5.932;2023-05-07T03:06:02;12.30;99.90
53653;DHT22;39553;52.954;5.932;2023-05-07T03:08:27;12.30;99.90
53653;DHT22;39553;52.954;5.932;2023-05-07T03:10:53;12.30;99.90
53653;DHT22;39553;52.954;5.932;2023-05-07T03:13:19;12.20;99.90
53653;DHT22;39553;52.954;5.932;2023-05-07T03:15:46;12.20;99.90
53653;DHT22;39553;52.954;5.932;2023-05-07T03:18:12;12.10;99.90
53653;DHT22;39553;52.954;5.932;2023-05-07T03:20:37;12.10;99.90
53653;DHT22;39553;52.954;5.932;2023-05-07T03:23:04;12.10;99.90
53653;DHT22;39553;52.954;5.932;2023-05-07T03:25:31;12.00;99.90
53653;DHT22;39553;52.954;5.932;2023-05-07T03:27:57;12.00;99.90
53653;DHT22;39553;52.954;5.932;2023-05-07T03:30:23;12.00;99.90
53653;DHT22;39553;52.954;5.932;2023-05-07T03:32:49;12.00;99.90
53653;DHT22;39553;52.954;5.932;2023-05-07T03:35:14;12.00;99.90
53653;DHT22;39553;52.954;5.932;2023-05-07T03:37:40;11.90;99.90
53653;DHT22;39553;52.954;5.932;2023-05-07T03:40:06;11.90;99.90
53653;DHT22;39553;52.954;5.932;2023-05-07T03:42:33;11.90;99.90
53653;DHT22;39553;52.954;5.932;2023-05-07T03:44:59;11.90;99.90
53653;DHT22;39553;52.954;5.932;2023-05-07T03:47:25;11.80;99.90
53653;DHT22;39553;52.954;5.932;2023-05-07T03:49:51;11.80;99.90
53653;DHT22;39553;52.954;5.932;2023-05-07T03:52:18;11.80;99.90
53653;DHT22;39553;52.954;5.932;2023-05-07T03:54:49;11.80;99.90
53653;DHT22;39553;52.954;5.932;2023-05-07T03:57:15;11.70;99.90
53653;DHT22;39553;52.954;5.932;2023-05-07T03:59:41;11.70;99.90
53653;DHT22;39553;52.954;5.932;2023-05-07T04:02:07;11.70;99.90
53653;DHT22;39553;52.954;5.932;2023-05-07T04:04:32;11.70;99.90
53653;DHT22;39553;52.954;5.932;2023-05-07T04:06:58;11.70;99.90
53653;DHT22;39553;52.954;5.932;2023-05-07T04:09:25;11.70;99.90
53653;DHT22;39553;52.954;5.932;2023-05-07T04:11:51;11.70;99.90
53653;DHT22;39553;52.954;5.932;2023-05-07T04:14:17;11.70;99.90
53653;DHT22;39553;52.954;5.932;2023-05-07T04:16:43;11.60;99.90
53653;DHT22;39553;52.954;5.932;2023-05-07T04:19:09;11.60;99.90
53653;DHT22;39553;52.954;5.932;2023-05-07T04:21:34;11.60;99.90
53653;DHT22;39553;52.954;5.932;2023-05-07T04:24:00;11.60;99.90
53653;DHT22;39553;52.954;5.932;2023-05-07T04:26:26;11.60;99.90
53653;DHT22;39553;52.954;5.932;2023-05-07T04:28:52;11.60;99.90
53653;DHT22;39553;52.954;5.932;2023-05-07T04:31:17;11.60;99.90
53653;DHT22;39553;52.954;5.932;2023-05-07T04:33:44;11.60;99.90
53653;DHT22;39553;52.954;5.932;2023-05-07T04:36:10;11.60;99.90
53653;DHT22;39553;52.954;5.932;2023-05-07T04:38:36;11.60;99.90
53653;DHT22;39553;52.954;5.932;2023-05-07T04:41:04;11.50;99.90
53653;DHT22;39553;52.954;5.932;2023-05-07T04:43:30;11.60;99.90
53653;DHT22;39553;52.954;5.932;2023-05-07T04:45:56;11.60;99.90
53653;DHT22;39553;52.954;5.932;2023-05-07T04:48:22;11.30;99.90
53653;DHT22;39553;52.954;5.932;2023-05-07T04:50:52;11.50;99.90
53653;DHT22;39553;52.954;5.932;2023-05-07T04:53:18;11.60;99.90
53653;DHT22;39553;52.954;5.932;2023-05-07T04:55:44;11.40;99.90
53653;DHT22;39553;52.954;5.932;2023-05-07T04:58:11;11.60;99.90
53653;DHT22;39553;52.954;5.932;2023-05-07T05:00:38;11.50;99.90
53653;DHT22;39553;52.954;5.932;2023-05-07T05:03:06;11.50;99.90
53653;DHT22;39553;52.954;5.932;2023-05-07T05:05:32;11.50;99.90
53653;DHT22;39553;52.954;5.932;2023-05-07T05:07:58;11.50;99.90
53653;DHT22;39553;52.954;5.932;2023-05-07T05:10:24;11.50;99.90
53653;DHT22;39553;52.954;5.932;2023-05-07T05:12:51;11.40;99.90
53653;DHT22;39553;52.954;5.932;2023-05-07T05:15:16;11.40;99.90
53653;DHT22;39553;52.954;5.932;2023-05-07T05:17:42;11.50;99.90
53653;DHT22;39553;52.954;5.932;2023-05-07T05:20:08;11.50;99.90
53653;DHT22;39553;52.954;5.932;2023-05-07T05:22:36;11.30;99.90
53653;DHT22;39553;52.954;5.932;2023-05-07T05:25:02;11.50;99.90
53653;DHT22;39553;52.954;5.932;2023-05-07T05:27:28;11.50;99.90
53653;DHT22;39553;52.954;5.932;2023-05-07T05:29:57;11.50;99.90
53653;DHT22;39553;52.954;5.932;2023-05-07T05:32:23;11.50;99.90
53653;DHT22;39553;52.954;5.932;2023-05-07T05:34:49;11.60;99.90
53653;DHT22;39553;52.954;5.932;2023-05-07T05:37:15;11.60;99.90
53653;DHT22;39553;52.954;5.932;2023-05-07T05:39:41;11.50;99.90
53653;DHT22;39553;52.954;5.932;2023-05-07T05:42:08;11.60;99.90
53653;DHT22;39553;52.954;5.932;2023-05-07T05:44:33;11.60;99.90
53653;DHT22;39553;52.954;5.932;2023-05-07T05:46:59;11.60;99.90
53653;DHT22;39553;52.954;5.932;2023-05-07T05:49:25;11.70;99.90
53653;DHT22;39553;52.954;5.932;2023-05-07T05:51:55;11.70;99.90
53653;DHT22;39553;52.954;5.932;2023-05-07T05:54:21;11.70;99.90
53653;DHT22;39553;52.954;5.932;2023-05-07T05:56:47;11.70;99.90
53653;DHT22;39553;52.954;5.932;2023-05-07T05:59:14;11.70;99.90
53653;DHT22;39553;52.954;5.932;2023-05-07T06:01:40;11.60;99.90
53653;DHT22;39553;52.954;5.932;2023-05-07T06:04:08;11.70;99.90
53653;DHT22;39553;52.954;5.932;2023-05-07T06:06:34;11.70;99.90
53653;DHT22;39553;52.954;5.932;2023-05-07T06:09:01;11.80;99.90
53653;DHT22;39553;52.954;5.932;2023-05-07T06:11:27;11.80;99.90
53653;DHT22;39553;52.954;5.932;2023-05-07T06:14:19;11.90;99.90
53653;DHT22;39553;52.954;5.932;2023-05-07T06:16:50;11.90;99.90
53653;DHT22;39553;52.954;5.932;2023-05-07T06:19:17;12.00;99.90
53653;DHT22;39553;52.954;5.932;2023-05-07T06:21:51;12.00;99.90
53653;DHT22;39553;52.954;5.932;2023-05-07T06:24:16;11.60;99.90
53653;DHT22;39553;52.954;5.932;2023-05-07T06:26:42;12.40;99.90
53653;DHT22;39553;52.954;5.932;2023-05-07T06:29:08;12.10;99.90
53653;DHT22;39553;52.954;5.932;2023-05-07T06:31:34;12.10;99.90
53653;DHT22;39553;52.954;5.932;2023-05-07T06:34:00;12.20;99.90
53653;DHT22;39553;52.954;5.932;2023-05-07T06:36:30;12.30;99.90
53653;DHT22;39553;52.954;5.932;2023-05-07T06:38:56;12.50;99.90
53653;DHT22;39553;52.954;5.932;2023-05-07T06:41:22;12.70;99.90
53653;DHT22;39553;52.954;5.932;2023-05-07T06:43:48;12.80;99.90
53653;DHT22;39553;52.954;5.932;2023-05-07T06:46:14;13.00;99.90
53653;DHT22;39553;52.954;5.932;2023-05-07T06:48:40;13.20;99.90
53653;DHT22;39553;52.954;5.932;2023-05-07T06:51:06;13.30;99.90
53653;DHT22;39553;52.954;5.932;2023-05-07T06:53:33;12.80;99.90
53653;DHT22;39553;52.954;5.932;2023-05-07T06:56:00;13.60;99.90
53653;DHT22;39553;52.954;5.932;2023-05-07T06:58:26;13.60;99.90
53653;DHT22;39553;52.954;5.932;2023-05-07T07:00:52;13.60;99.90
53653;DHT22;39553;52.954;5.932;2023-05-07T07:03:21;13.60;99.90
53653;DHT22;39553;52.954;5.932;2023-05-07T07:05:53;13.40;99.90
53653;DHT22;39553;52.954;5.932;2023-05-07T07:08:19;13.50;99.90
53653;DHT22;39553;52.954;5.932;2023-05-07T07:10:47;13.20;99.90
53653;DHT22;39553;52.954;5.932;2023-05-07T07:13:13;13.40;99.90
53653;DHT22;39553;52.954;5.932;2023-05-07T07:15:39;13.40;99.90
53653;DHT22;39553;52.954;5.932;2023-05-07T07:18:06;13.60;99.90
53653;DHT22;39553;52.954;5.932;2023-05-07T07:20:33;13.30;99.90
53653;DHT22;39553;52.954;5.932;2023-05-07T07:22:59;13.40;99.90
53653;DHT22;39553;52.954;5.932;2023-05-07T07:25:25;13.50;99.90
53653;DHT22;39553;52.954;5.932;2023-05-07T07:27:51;13.60;99.90
53653;DHT22;39553;52.954;5.932;2023-05-07T07:30:17;13.60;99.90
53653;DHT22;39553;52.954;5.932;2023-05-07T07:32:53;13.80;99.90
53653;DHT22;39553;52.954;5.932;2023-05-07T07:35:19;13.90;99.90
53653;DHT22;39553;52.954;5.932;2023-05-07T07:37:46;14.00;99.90
53653;DHT22;39553;52.954;5.932;2023-05-07T07:40:12;14.00;99.90
53653;DHT22;39553;52.954;5.932;2023-05-07T07:42:38;14.00;99.90
53653;DHT22;39553;52.954;5.932;2023-05-07T07:45:05;14.10;99.90
53653;DHT22;39553;52.954;5.932;2023-05-07T07:47:34;14.10;99.90
53653;DHT22;39553;52.954;5.932;2023-05-07T07:50:00;14.00;99.90
53653;DHT22;39553;52.954;5.932;2023-05-07T07:52:25;14.40;99.90
53653;DHT22;39553;52.954;5.932;2023-05-07T07:54:51;14.60;99.90
53653;DHT22;39553;52.954;5.932;2023-05-07T07:57:17;14.80;99.90
53653;DHT22;39553;52.954;5.932;2023-05-07T07:59:43;15.00;99.90
53653;DHT22;39553;52.954;5.932;2023-05-07T08:02:09;15.00;99.90
53653;DHT22;39553;52.954;5.932;2023-05-07T08:04:35;15.20;99.90
53653;DHT22;39553;52.954;5.932;2023-05-07T08:07:04;15.40;99.90
53653;DHT22;39553;52.954;5.932;2023-05-07T08:09:41;15.60;99.90
53653;DHT22;39553;52.954;5.932;2023-05-07T08:12:12;15.80;99.90
53653;DHT22;39553;52.954;5.932;2023-05-07T08:14:41;15.70;99.90
53653;DHT22;39553;52.954;5.932;2023-05-07T08:17:07;15.70;99.90
53653;DHT22;39553;52.954;5.932;2023-05-07T08:19:35;15.80;99.90
53653;DHT22;39553;52.954;5.932;2023-05-07T08:22:02;15.80;99.90
53653;DHT22;39553;52.954;5.932;2023-05-07T08:24:28;16.00;99.90
53653;DHT22;39553;52.954;5.932;2023-05-07T08:26:54;16.20;99.90
53653;DHT22;39553;52.954;5.932;2023-05-07T08:29:20;16.40;99.90
53653;DHT22;39553;52.954;5.932;2023-05-07T08:31:46;16.60;99.90
53653;DHT22;39553;52.954;5.932;2023-05-07T08:34:12;16.80;99.90
53653;DHT22;39553;52.954;5.932;2023-05-07T08:36:38;16.90;99.90
53653;DHT22;39553;52.954;5.932;2023-05-07T08:39:04;16.90;99.90
53653;DHT22;39553;52.954;5.932;2023-05-07T08:41:30;16.90;99.90
53653;DHT22;39553;52.954;5.932;2023-05-07T08:44:02;16.70;99.90
53653;DHT22;39553;52.954;5.932;2023-05-07T08:46:31;16.70;99.90
53653;DHT22;39553;52.954;5.932;2023-05-07T08:48:59;16.60;99.90
53653;DHT22;39553;52.954;5.932;2023-05-07T08:51:25;16.50;99.90
53653;DHT22;39553;52.954;5.932;2023-05-07T08:53:51;16.80;99.90
53653;DHT22;39553;52.954;5.932;2023-05-07T08:56:17;17.00;99.90
53653;DHT22;39553;52.954;5.932;2023-05-07T08:58:44;17.30;99.90
53653;DHT22;39553;52.954;5.932;2023-05-07T09:01:13;18.10;99.90
53653;DHT22;39553;52.954;5.932;2023-05-07T09:03:40;18.80;99.90
53653;DHT22;39553;52.954;5.932;2023-05-07T09:06:06;19.20;99.90
53653;DHT22;39553;52.954;5.932;2023-05-07T09:08:51;19.70;99.90
53653;DHT22;39553;52.954;5.932;2023-05-07T09:11:21;19.70;99.10
53653;DHT22;39553;52.954;5.932;2023-05-07T09:13:54;19.80;99.90
53653;DHT22;39553;52.954;5.932;2023-05-07T09:16:21;19.70;99.60
53653;DHT22;39553;52.954;5.932;2023-05-07T09:18:51;19.90;99.30
53653;DHT22;39553;52.954;5.932;2023-05-07T09:21:18;20.10;98.80
53653;DHT22;39553;52.954;5.932;2023-05-07T09:23:50;20.30;98.30
53653;DHT22;39553;52.954;5.932;2023-05-07T09:26:17;20.40;98.00
53653;DHT22;39553;52.954;5.932;2023-05-07T09:28:43;20.00;96.60
53653;DHT22;39553;52.954;5.932;2023-05-07T09:31:10;19.20;96.10
53653;DHT22;39553;52.954;5.932;2023-05-07T09:33:37;18.60;96.40
53653;DHT22;39553;52.954;5.932;2023-05-07T09:36:04;18.20;97.50
53653;DHT22;39553;52.954;5.932;2023-05-07T09:38:32;18.00;97.80
53653;DHT22;39553;52.954;5.932;2023-05-07T09:41:11;17.80;97.90
53653;DHT22;39553;52.954;5.932;2023-05-07T09:43:38;17.70;98.00
53653;DHT22;39553;52.954;5.932;2023-05-07T09:46:15;17.60;98.30
53653;DHT22;39553;52.954;5.932;2023-05-07T09:48:43;17.70;98.70
53653;DHT22;39553;52.954;5.932;2023-05-07T09:51:39;17.90;98.80
53653;DHT22;39553;52.954;5.932;2023-05-07T09:54:07;18.20;98.50
53653;DHT22;39553;52.954;5.932;2023-05-07T09:56:33;18.70;98.60
53653;DHT22;39553;52.954;5.932;2023-05-07T09:59:00;19.00;97.70
53653;DHT22;39553;52.954;5.932;2023-05-07T10:01:27;19.10;97.40
53653;DHT22;39553;52.954;5.932;2023-05-07T10:03:53;19.10;97.60
53653;DHT22;39553;52.954;5.932;2023-05-07T10:06:20;18.90;97.60
53653;DHT22;39553;52.954;5.932;2023-05-07T10:08:48;18.90;97.60
53653;DHT22;39553;52.954;5.932;2023-05-07T10:11:15;18.80;96.80
53653;DHT22;39553;52.954;5.932;2023-05-07T10:13:42;18.40;97.10
53653;DHT22;39553;52.954;5.932;2023-05-07T10:16:09;18.30;97.30
53653;DHT22;39553;52.954;5.932;2023-05-07T10:18:34;18.60;97.60
53653;DHT22;39553;52.954;5.932;2023-05-07T10:23:49;18.70;97.20
53653;DHT22;39553;52.954;5.932;2023-05-07T10:26:15;18.90;97.30
53653;DHT22;39553;52.954;5.932;2023-05-07T10:28:45;18.90;95.50
53653;DHT22;39553;52.954;5.932;2023-05-07T10:34:16;19.10;95.60
53653;DHT22;39553;52.954;5.932;2023-05-07T10:36:44;19.10;96.40
53653;DHT22;39553;52.954;5.932;2023-05-07T10:39:10;19.10;96.40
53653;DHT22;39553;52.954;5.932;2023-05-07T10:41:36;19.20;96.50
53653;DHT22;39553;52.954;5.932;2023-05-07T10:44:02;19.30;96.70
53653;DHT22;39553;52.954;5.932;2023-05-07T10:46:31;19.50;96.80
53653;DHT22;39553;52.954;5.932;2023-05-07T10:51:27;20.10;95.90
53653;DHT22;39553;52.954;5.932;2023-05-07T10:56:42;20.40;93.60
53653;DHT22;39553;52.954;5.932;2023-05-07T11:01:58;20.30;94.30
53653;DHT22;39553;52.954;5.932;2023-05-07T11:04:25;20.40;94.70
53653;DHT22;39553;52.954;5.932;2023-05-07T11:07:26;20.30;94.70
53653;DHT22;39553;52.954;5.932;2023-05-07T11:09:59;20.30;94.10
53653;DHT22;39553;52.954;5.932;2023-05-07T11:15:03;19.90;92.90
53653;DHT22;39553;52.954;5.932;2023-05-07T11:17:30;20.00;95.30
53653;DHT22;39553;52.954;5.932;2023-05-07T11:20:01;20.10;94.80
53653;DHT22;39553;52.954;5.932;2023-05-07T11:25:02;20.60;94.30
53653;DHT22;39553;52.954;5.932;2023-05-07T11:27:28;20.60;93.60
53653;DHT22;39553;52.954;5.932;2023-05-07T11:29:58;20.70;93.60
53653;DHT22;39553;52.954;5.932;2023-05-07T11:32:32;20.90;93.40
53653;DHT22;39553;52.954;5.932;2023-05-07T11:35:00;21.10;93.40
53653;DHT22;39553;52.954;5.932;2023-05-07T11:37:28;21.40;93.60
53653;DHT22;39553;52.954;5.932;2023-05-07T11:40:08;22.00;92.80
53653;DHT22;39553;52.954;5.932;2023-05-07T11:42:37;22.40;91.70
53653;DHT22;39553;52.954;5.932;2023-05-07T11:45:06;22.20;91.60
53653;DHT22;39553;52.954;5.932;2023-05-07T11:47:33;21.90;91.30
53653;DHT22;39553;52.954;5.932;2023-05-07T11:50:08;21.80;91.40
53653;DHT22;39553;52.954;5.932;2023-05-07T11:52:37;21.70;91.20
53653;DHT22;39553;52.954;5.932;2023-05-07T11:55:04;21.60;91.20
53653;DHT22;39553;52.954;5.932;2023-05-07T11:57:32;21.70;91.00
53653;DHT22;39553;52.954;5.932;2023-05-07T12:00:02;21.70;90.60
53653;DHT22;39553;52.954;5.932;2023-05-07T12:02:29;21.80;90.70
53653;DHT22;39553;52.954;5.932;2023-05-07T12:04:56;21.60;90.70
53653;DHT22;39553;52.954;5.932;2023-05-07T12:07:25;21.40;90.30
53653;DHT22;39553;52.954;5.932;2023-05-07T12:09:52;21.20;90.50
53653;DHT22;39553;52.954;5.932;2023-05-07T12:12:19;21.20;90.60
53653;DHT22;39553;52.954;5.932;2023-05-07T12:14:45;21.10;90.70
53653;DHT22;39553;52.954;5.932;2023-05-07T12:17:13;21.10;90.80
53653;DHT22;39553;52.954;5.932;2023-05-07T12:19:41;21.10;90.60
53653;DHT22;39553;52.954;5.932;2023-05-07T12:22:09;21.00;90.30
53653;DHT22;39553;52.954;5.932;2023-05-07T12:24:47;20.80;90.30
53653;DHT22;39553;52.954;5.932;2023-05-07T12:27:14;20.60;90.50
53653;DHT22;39553;52.954;5.932;2023-05-07T12:29:47;20.50;90.80
53653;DHT22;39553;52.954;5.932;2023-05-07T12:32:14;20.50;91.00
53653;DHT22;39553;52.954;5.932;2023-05-07T12:34:41;20.60;91.30
53653;DHT22;39553;52.954;5.932;2023-05-07T12:37:07;20.50;91.30
53653;DHT22;39553;52.954;5.932;2023-05-07T12:39:32;20.60;91.50
53653;DHT22;39553;52.954;5.932;2023-05-07T12:41:59;20.60;91.10
53653;DHT22;39553;52.954;5.932;2023-05-07T12:44:29;20.80;90.70
53653;DHT22;39553;52.954;5.932;2023-05-07T12:49:30;20.70;90.90
53653;DHT22;39553;52.954;5.932;2023-05-07T12:51:56;21.00;90.70
53653;DHT22;39553;52.954;5.932;2023-05-07T12:54:33;20.90;90.30
53653;DHT22;39553;52.954;5.932;2023-05-07T12:57:07;20.90;90.30
53653;DHT22;39553;52.954;5.932;2023-05-07T12:59:38;20.80;90.00
53653;DHT22;39553;52.954;5.932;2023-05-07T13:02:04;20.80;90.30
53653;DHT22;39553;52.954;5.932;2023-05-07T13:04:30;20.80;90.50
53653;DHT22;39553;52.954;5.932;2023-05-07T13:06:56;20.70;90.40
53653;DHT22;39553;52.954;5.932;2023-05-07T13:09:22;20.70;90.50
53653;DHT22;39553;52.954;5.932;2023-05-07T13:11:48;20.90;90.70
53653;DHT22;39553;52.954;5.932;2023-05-07T13:14:15;20.90;91.00
53653;DHT22;39553;52.954;5.932;2023-05-07T13:16:41;21.10;90.60
53653;DHT22;39553;52.954;5.932;2023-05-07T13:19:07;21.30;90.40
53653;DHT22;39553;52.954;5.932;2023-05-07T13:21:33;21.30;90.40
53653;DHT22;39553;52.954;5.932;2023-05-07T13:24:00;21.50;90.40
53653;DHT22;39553;52.954;5.932;2023-05-07T13:26:26;21.60;90.40
53653;DHT22;39553;52.954;5.932;2023-05-07T13:28:55;21.50;90.00
53653;DHT22;39553;52.954;5.932;2023-05-07T13:31:21;21.20;89.40
53653;DHT22;39553;52.954;5.932;2023-05-07T13:33:47;21.00;90.10
53653;DHT22;39553;52.954;5.932;2023-05-07T13:36:13;20.90;90.30
53653;DHT22;39553;52.954;5.932;2023-05-07T13:38:39;20.90;90.00
53653;DHT22;39553;52.954;5.932;2023-05-07T13:41:05;20.90;90.00
53653;DHT22;39553;52.954;5.932;2023-05-07T13:43:31;20.80;90.20
53653;DHT22;39553;52.954;5.932;2023-05-07T13:45:59;20.80;90.20
53653;DHT22;39553;52.954;5.932;2023-05-07T13:48:25;20.80;90.30
53653;DHT22;39553;52.954;5.932;2023-05-07T13:50:51;20.70;90.20
53653;DHT22;39553;52.954;5.932;2023-05-07T13:53:17;20.80;90.70
53653;DHT22;39553;52.954;5.932;2023-05-07T13:55:44;20.80;90.80
53653;DHT22;39553;52.954;5.932;2023-05-07T13:58:10;20.90;90.40
53653;DHT22;39553;52.954;5.932;2023-05-07T14:00:37;21.00;90.20
53653;DHT22;39553;52.954;5.932;2023-05-07T14:03:05;21.10;90.30
53653;DHT22;39553;52.954;5.932;2023-05-07T14:05:31;21.10;90.10
53653;DHT22;39553;52.954;5.932;2023-05-07T14:07:57;21.20;89.90
53653;DHT22;39553;52.954;5.932;2023-05-07T14:10:23;21.30;89.20
53653;DHT22;39553;52.954;5.932;2023-05-07T14:12:52;21.00;88.40
53653;DHT22;39553;52.954;5.932;2023-05-07T14:15:18;21.20;88.90
53653;DHT22;39553;52.954;5.932;2023-05-07T14:17:45;21.20;88.30
53653;DHT22;39553;52.954;5.932;2023-05-07T14:20:12;21.30;87.80
53653;DHT22;39553;52.954;5.932;2023-05-07T14:22:38;21.30;87.40
53653;DHT22;39553;52.954;5.932;2023-05-07T14:25:05;21.30;87.60
53653;DHT22;39553;52.954;5.932;2023-05-07T14:27:31;21.20;86.70
53653;DHT22;39553;52.954;5.932;2023-05-07T14:29:57;21.20;86.90
53653;DHT22;39553;52.954;5.932;2023-05-07T14:32:22;21.10;86.70
53653;DHT22;39553;52.954;5.932;2023-05-07T14:34:48;21.40;86.40
53653;DHT22;39553;52.954;5.932;2023-05-07T14:37:16;21.70;86.20
53653;DHT22;39553;52.954;5.932;2023-05-07T14:39:42;21.70;85.70
53653;DHT22;39553;52.954;5.932;2023-05-07T14:42:08;21.80;86.00
53653;DHT22;39553;52.954;5.932;2023-05-07T14:44:35;22.30;85.50
53653;DHT22;39553;52.954;5.932;2023-05-07T14:47:01;22.80;83.80
53653;DHT22;39553;52.954;5.932;2023-05-07T14:49:27;22.70;82.40
53653;DHT22;39553;52.954;5.932;2023-05-07T14:52:10;23.00;82.30
53653;DHT22;39553;52.954;5.932;2023-05-07T14:54:37;23.00;81.50
53653;DHT22;39553;52.954;5.932;2023-05-07T14:57:17;23.00;80.30
53653;DHT22;39553;52.954;5.932;2023-05-07T15:00:03;22.60;79.70
53653;DHT22;39553;52.954;5.932;2023-05-07T15:02:30;22.30;81.50
53653;DHT22;39553;52.954;5.932;2023-05-07T15:10:07;21.80;83.20
53653;DHT22;39553;52.954;5.932;2023-05-07T15:12:41;21.70;84.00
53653;DHT22;39553;52.954;5.932;2023-05-07T15:15:08;21.80;84.20
53653;DHT22;39553;52.954;5.932;2023-05-07T15:20:12;22.40;82.50
53653;DHT22;39553;52.954;5.932;2023-05-07T15:22:39;22.50;81.40
53653;DHT22;39553;52.954;5.932;2023-05-07T15:25:07;22.50;81.90
53653;DHT22;39553;52.954;5.932;2023-05-07T15:27:33;22.60;81.50
53653;DHT22;39553;52.954;5.932;2023-05-07T15:29:59;22.70;81.50
53653;DHT22;39553;52.954;5.932;2023-05-07T15:32:25;22.50;80.70
53653;DHT22;39553;52.954;5.932;2023-05-07T15:34:51;22.30;81.00
53653;DHT22;39553;52.954;5.932;2023-05-07T15:37:17;22.10;81.20
53653;DHT22;39553;52.954;5.932;2023-05-07T15:39:43;21.90;81.60
53653;DHT22;39553;52.954;5.932;2023-05-07T15:42:08;22.10;81.90
53653;DHT22;39553;52.954;5.932;2023-05-07T15:44:34;22.20;80.60
53653;DHT22;39553;52.954;5.932;2023-05-07T15:47:01;22.20;80.20
53653;DHT22;39553;52.954;5.932;2023-05-07T15:49:27;21.90;80.40
53653;DHT22;39553;52.954;5.932;2023-05-07T15:51:52;21.40;80.90
53653;DHT22;39553;52.954;5.932;2023-05-07T15:54:20;21.50;81.70
53653;DHT22;39553;52.954;5.932;2023-05-07T15:56:47;21.30;82.00
53653;DHT22;39553;52.954;5.932;2023-05-07T15:59:16;21.20;82.20